createdAt,value
2022-12-01T00:00:52.160Z,69
2022-12-01T00:03:22.636Z,69
2022-12-01T00:05:52.668Z,69
2022-12-01T00:08:22.898Z,69
2022-12-01T00:10:53.364Z,68
2022-12-01T00:13:24.132Z,69
2022-12-01T00:15:55.405Z,69
2022-12-01T00:18:26.043Z,69
2022-12-01T00:20:57.258Z,69
2022-12-01T00:23:27.646Z,69
2022-12-01T00:25:58.629Z,69
2022-12-01T00:28:29.416Z,69
2022-12-01T00:31:00.759Z,69
2022-12-01T00:33:31.664Z,69
2022-12-01T00:36:02.155Z,69
2022-12-01T00:38:33.605Z,69
2022-12-01T00:41:04.471Z,69
2022-12-01T00:43:35.291Z,69
2022-12-01T00:46:06.023Z,69
2022-12-01T00:48:36.476Z,69
2022-12-01T00:51:07.634Z,69
2022-12-01T00:53:38.066Z,69
2022-12-01T00:56:08.415Z,70
2022-12-01T00:58:40.498Z,69
2022-12-01T01:01:10.793Z,70
2022-12-01T01:03:41.484Z,69
2022-12-01T01:06:12.374Z,69
2022-12-01T01:08:43.633Z,69
2022-12-01T01:11:14.036Z,69
2022-12-01T01:13:44.802Z,69
2022-12-01T01:16:15.623Z,69
2022-12-01T01:18:46.536Z,69
2022-12-01T01:21:17.926Z,69
2022-12-01T01:23:48.888Z,69
2022-12-01T01:26:19.548Z,69
2022-12-01T01:28:50.566Z,69
2022-12-01T01:31:21.901Z,69
2022-12-01T01:33:52.885Z,69
2022-12-01T01:36:23.632Z,69
2022-12-01T01:38:54.260Z,69
2022-12-01T01:41:24.742Z,69
2022-12-01T01:43:55.813Z,69
2022-12-01T01:46:26.789Z,68
2022-12-01T01:48:58.406Z,68
2022-12-01T01:51:29.083Z,69
2022-12-01T01:53:59.433Z,69
2022-12-01T01:56:31.414Z,69
2022-12-01T01:59:02.355Z,69
2022-12-01T02:01:32.610Z,69
2022-12-01T02:04:03.404Z,69
2022-12-01T02:06:33.949Z,69
2022-12-01T02:09:05.100Z,69
2022-12-01T02:11:35.923Z,69
2022-12-01T02:14:06.748Z,68
2022-12-01T02:16:38.232Z,68
2022-12-01T02:19:09.776Z,69
2022-12-01T02:21:40.510Z,69
2022-12-01T02:24:12.606Z,69
2022-12-01T02:26:43.396Z,69
2022-12-01T02:29:13.848Z,68
2022-12-01T02:31:45.493Z,68
2022-12-01T02:34:16.045Z,68
2022-12-01T02:36:47.302Z,68
2022-12-01T02:39:18.337Z,68
2022-12-01T02:41:49.649Z,68
2022-12-01T02:44:20.875Z,68
2022-12-01T02:46:52.311Z,68
2022-12-01T02:49:22.955Z,68
2022-12-01T02:51:53.595Z,68
2022-12-01T02:54:24.691Z,68
2022-12-01T02:56:55.748Z,68
2022-12-01T02:59:26.555Z,68
2022-12-01T03:01:57.506Z,68
2022-12-01T03:04:27.828Z,68
2022-12-01T03:06:59.527Z,68
2022-12-01T03:09:30.898Z,68
2022-12-01T03:12:01.281Z,67
2022-12-01T03:14:33.316Z,67
2022-12-01T03:17:04.272Z,67
2022-12-01T03:19:35.557Z,68
2022-12-01T03:22:05.956Z,68
2022-12-01T03:24:36.883Z,67
2022-12-01T03:27:08.008Z,68
2022-12-01T03:29:39.035Z,68
2022-12-01T03:32:08.505Z,67
2022-12-01T03:34:38.866Z,68
2022-12-01T03:37:10.569Z,68
2022-12-01T03:39:41.590Z,68
2022-12-01T03:42:12.837Z,68
2022-12-01T03:44:44.278Z,68
2022-12-01T03:47:14.780Z,68
2022-12-01T03:49:45.495Z,68
2022-12-01T03:52:16.393Z,68
2022-12-01T03:54:47.778Z,68
2022-12-01T03:57:18.670Z,68
2022-12-01T03:59:49.736Z,68
2022-12-01T04:02:20.947Z,68
2022-12-01T04:04:51.607Z,68
2022-12-01T04:07:22.594Z,68
2022-12-01T04:09:54.231Z,68
2022-12-01T04:12:25.193Z,68
2022-12-01T04:14:57.028Z,68
2022-12-01T04:17:27.817Z,68
2022-12-01T04:19:59.575Z,68
2022-12-01T04:22:30.523Z,68
2022-12-01T04:25:01.990Z,68
2022-12-01T04:27:33.531Z,68
2022-12-01T04:30:04.746Z,67
2022-12-01T04:32:35.281Z,67
2022-12-01T04:35:06.088Z,67
2022-12-01T04:37:37.938Z,67
2022-12-01T04:40:09.252Z,68
2022-12-01T04:42:41.042Z,67
2022-12-01T04:45:12.187Z,68
2022-12-01T04:47:44.064Z,68
2022-12-01T04:50:15.910Z,68
2022-12-01T04:52:46.848Z,68
2022-12-01T04:55:17.456Z,68
2022-12-01T04:57:48.971Z,68
2022-12-01T05:00:20.236Z,68
2022-12-01T05:02:51.765Z,69
2022-12-01T05:05:23.245Z,68
2022-12-01T05:07:54.490Z,68
2022-12-01T05:10:25.047Z,68
2022-12-01T05:12:56.455Z,68
2022-12-01T05:15:27.706Z,68
2022-12-01T05:17:58.740Z,68
2022-12-01T05:20:29.959Z,68
2022-12-01T05:23:05.936Z,68
2022-12-01T05:25:32.626Z,68
2022-12-01T05:28:03.768Z,68
2022-12-01T05:30:34.726Z,68
2022-12-01T05:33:05.843Z,68
2022-12-01T05:35:37.378Z,68
2022-12-01T05:38:08.786Z,68
2022-12-01T05:40:40.097Z,68
2022-12-01T05:43:10.994Z,68
2022-12-01T05:45:42.454Z,69
2022-12-01T05:48:13.693Z,68
2022-12-01T05:50:44.402Z,68
2022-12-01T05:53:15.615Z,68
2022-12-01T05:55:46.843Z,68
2022-12-01T05:58:17.832Z,68
2022-12-01T06:00:49.798Z,68
2022-12-01T06:03:21.019Z,68
2022-12-01T06:05:52.597Z,68
2022-12-01T06:08:23.938Z,68
2022-12-01T06:10:54.761Z,68
2022-12-01T06:13:25.615Z,68
2022-12-01T06:15:57.028Z,68
2022-12-01T06:18:28.546Z,68
2022-12-01T06:20:59.473Z,67
2022-12-01T06:23:30.660Z,67
2022-12-01T06:26:00.831Z,67
2022-12-01T06:28:35.354Z,67
2022-12-01T06:31:05.565Z,67
2022-12-01T06:33:36.693Z,67
2022-12-01T06:36:07.666Z,67
2022-12-01T06:38:41.718Z,68
2022-12-01T06:41:13.857Z,68
2022-12-01T06:43:44.618Z,67
2022-12-01T06:46:15.332Z,68
2022-12-01T06:48:46.045Z,68
2022-12-01T06:51:16.807Z,67
2022-12-01T06:53:47.350Z,68
2022-12-01T06:56:21.879Z,68
2022-12-01T06:58:52.400Z,68
2022-12-01T07:01:23.317Z,67
2022-12-01T07:03:53.645Z,67
2022-12-01T07:06:24.465Z,67
2022-12-01T07:08:55.297Z,67
2022-12-01T07:11:25.692Z,67
2022-12-01T07:13:59.994Z,66
2022-12-01T07:16:30.175Z,66
2022-12-01T07:19:00.936Z,66
2022-12-01T07:21:31.850Z,66
2022-12-01T07:24:01.905Z,66
2022-12-01T07:26:32.542Z,66
2022-12-01T07:29:03.644Z,66
2022-12-01T07:31:34.486Z,66
2022-12-01T07:34:05.685Z,66
2022-12-01T07:36:36.030Z,66
2022-12-01T07:39:06.832Z,66
2022-12-01T07:41:37.336Z,66
2022-12-01T07:44:08.027Z,66
2022-12-01T07:46:39.033Z,66
2022-12-01T07:49:09.289Z,66
2022-12-01T07:51:39.885Z,66
2022-12-01T07:54:10.539Z,66
2022-12-01T07:56:41.772Z,66
2022-12-01T07:59:13.569Z,66
2022-12-01T08:01:46.513Z,66
2022-12-01T08:04:17.351Z,66
2022-12-01T08:06:48.294Z,66
2022-12-01T08:09:18.951Z,66
2022-12-01T08:11:49.582Z,66
2022-12-01T08:14:20.170Z,66
2022-12-01T08:16:50.775Z,66
2022-12-01T08:19:22.313Z,65
2022-12-01T08:21:52.920Z,65
2022-12-01T08:24:21.814Z,65
2022-12-01T08:26:52.202Z,65
2022-12-01T08:29:22.225Z,65
2022-12-01T08:31:53.092Z,65
2022-12-01T08:34:24.010Z,66
2022-12-01T08:36:54.748Z,65
2022-12-01T08:39:25.556Z,66
2022-12-01T08:41:56.946Z,65
2022-12-01T08:44:28.521Z,65
2022-12-01T08:46:59.571Z,65
2022-12-01T08:49:30.742Z,65
2022-12-01T08:52:02.470Z,65
2022-12-01T08:54:33.834Z,65
2022-12-01T08:57:04.442Z,66
2022-12-01T08:59:36.502Z,66
2022-12-01T09:02:07.131Z,66
2022-12-01T09:04:38.064Z,66
2022-12-01T09:07:09.479Z,66
2022-12-01T09:09:40.847Z,66
2022-12-01T09:12:11.317Z,67
2022-12-01T09:14:42.451Z,66
2022-12-01T09:17:14.538Z,67
2022-12-01T09:19:45.462Z,67
2022-12-01T09:22:16.506Z,67
2022-12-01T09:24:47.672Z,67
2022-12-01T09:27:18.544Z,67
2022-12-01T09:29:50.267Z,67
2022-12-01T09:32:20.809Z,67
2022-12-01T09:34:51.555Z,67
2022-12-01T09:37:22.376Z,68
2022-12-01T09:39:53.069Z,69
2022-12-01T09:42:24.462Z,69
2022-12-01T09:44:56.419Z,71
2022-12-01T09:47:27.686Z,71
2022-12-01T09:49:58.968Z,71
2022-12-01T09:52:30.570Z,71
2022-12-01T09:55:01.790Z,71
2022-12-01T09:57:32.625Z,72
2022-12-01T10:00:05.140Z,72
2022-12-01T10:02:36.786Z,72
2022-12-01T10:05:08.486Z,73
2022-12-01T10:07:39.832Z,73
2022-12-01T10:10:11.463Z,72
2022-12-01T10:12:43.584Z,73
2022-12-01T10:15:14.810Z,73
2022-12-01T10:17:46.058Z,73
2022-12-01T10:20:17.558Z,73
2022-12-01T10:22:48.685Z,72
2022-12-01T10:25:21.026Z,73
2022-12-01T10:27:52.283Z,73
2022-12-01T10:30:24.025Z,73
2022-12-01T10:32:55.603Z,72
2022-12-01T10:35:26.996Z,72
2022-12-01T10:38:01.614Z,73
2022-12-01T10:40:33.077Z,72
2022-12-01T10:43:04.984Z,73
2022-12-01T10:45:36.067Z,73
2022-12-01T10:48:07.291Z,73
2022-12-01T10:50:41.123Z,73
2022-12-01T10:53:13.724Z,73
2022-12-01T10:55:48.016Z,73
2022-12-01T10:58:17.618Z,73
2022-12-01T11:00:59.420Z,73
2022-12-01T11:03:21.883Z,73
2022-12-01T11:05:50.265Z,72
2022-12-01T11:08:22.079Z,72
2022-12-01T11:10:53.094Z,72
2022-12-01T11:13:24.319Z,72
2022-12-01T11:15:56.061Z,73
2022-12-01T11:18:30.018Z,73
2022-12-01T11:21:01.186Z,72
2022-12-01T11:23:32.880Z,71
2022-12-01T11:26:03.829Z,72
2022-12-01T11:28:35.515Z,71
2022-12-01T11:31:06.492Z,72
2022-12-01T11:33:37.328Z,72
2022-12-01T11:36:13.154Z,72
2022-12-01T11:38:40.725Z,72
2022-12-01T11:41:11.971Z,72
2022-12-01T11:43:46.812Z,72
2022-12-01T11:46:14.682Z,72
2022-12-01T11:48:44.244Z,71
2022-12-01T11:51:15.545Z,71
2022-12-01T11:53:47.478Z,71
2022-12-01T11:56:18.333Z,71
2022-12-01T11:58:50.488Z,72
2022-12-01T12:01:22.396Z,72
2022-12-01T12:03:53.396Z,72
2022-12-01T12:06:39.726Z,71
2022-12-01T12:08:56.878Z,70
2022-12-01T12:11:27.160Z,71
2022-12-01T12:14:03.199Z,71
2022-12-01T12:16:34.812Z,70
2022-12-01T12:19:06.221Z,70
2022-12-01T12:21:37.202Z,69
2022-12-01T12:24:08.138Z,69
2022-12-01T12:26:38.795Z,69
2022-12-01T12:29:13.746Z,69
2022-12-01T12:31:40.901Z,69
2022-12-01T12:34:11.799Z,70
2022-12-01T12:36:42.220Z,70
2022-12-01T12:39:16.691Z,69
2022-12-01T12:41:45.974Z,70
2022-12-01T12:44:16.661Z,69
2022-12-01T12:46:47.130Z,70
2022-12-01T12:49:20.375Z,70
2022-12-01T12:51:49.677Z,70
2022-12-01T12:54:20.779Z,70
2022-12-01T12:56:51.343Z,70
2022-12-01T12:59:21.725Z,70
2022-12-01T13:01:52.963Z,70
2022-12-01T13:04:23.829Z,70
2022-12-01T13:06:55.085Z,70
2022-12-01T13:09:26.358Z,70
2022-12-01T13:11:57.491Z,70
2022-12-01T13:14:28.396Z,70
2022-12-01T13:16:59.561Z,70
2022-12-01T13:19:30.593Z,70
2022-12-01T13:22:02.629Z,70
2022-12-01T13:24:36.608Z,70
2022-12-01T13:27:07.872Z,70
2022-12-01T13:29:43.801Z,70
2022-12-01T13:32:11.065Z,70
2022-12-01T13:34:42.078Z,70
2022-12-01T13:37:13.698Z,70
2022-12-01T13:39:46.660Z,69
2022-12-01T13:42:17.460Z,69
2022-12-01T13:44:48.265Z,69
2022-12-01T13:47:19.421Z,70
2022-12-01T13:49:50.548Z,70
2022-12-01T13:52:21.291Z,70
2022-12-01T13:54:53.669Z,70
2022-12-01T13:57:24.892Z,70
2022-12-01T13:59:56.149Z,70
2022-12-01T14:02:27.816Z,70
2022-12-01T14:04:59.603Z,70
2022-12-01T14:07:30.740Z,69
2022-12-01T14:10:01.874Z,70
2022-12-01T14:12:33.745Z,70
2022-12-01T14:15:07.125Z,70
2022-12-01T14:17:38.587Z,70
2022-12-01T14:20:11.880Z,70
2022-12-01T14:22:42.257Z,70
2022-12-01T14:25:15.157Z,70
2022-12-01T14:27:46.595Z,70
2022-12-01T14:30:17.839Z,71
2022-12-01T14:32:49.244Z,70
2022-12-01T14:35:20.440Z,70
2022-12-01T14:37:52.203Z,70
2022-12-01T14:40:23.567Z,70
2022-12-01T14:42:54.748Z,70
2022-12-01T14:45:26.006Z,70
2022-12-01T14:47:57.551Z,70
2022-12-01T14:50:29.810Z,70
2022-12-01T14:53:01.277Z,69
2022-12-01T14:55:31.617Z,69
2022-12-01T14:58:03.330Z,69
2022-12-01T15:00:34.891Z,69
2022-12-01T15:03:05.597Z,70
2022-12-01T15:05:37.481Z,69
2022-12-01T15:08:33.597Z,69
2022-12-01T15:10:40.434Z,70
2022-12-01T15:13:11.563Z,70
2022-12-01T15:15:43.625Z,71
2022-12-01T15:18:14.403Z,71
2022-12-01T15:20:47.861Z,71
2022-12-01T15:23:17.266Z,72
2022-12-01T15:25:48.819Z,72
2022-12-01T15:28:20.507Z,71
2022-12-01T15:30:50.622Z,72
2022-12-01T15:33:26.880Z,72
2022-12-01T15:35:54.063Z,72
2022-12-01T15:38:30.174Z,72
2022-12-01T15:41:27.715Z,72
2022-12-01T15:43:30.862Z,72
2022-12-01T15:46:01.771Z,72
2022-12-01T15:48:32.932Z,73
2022-12-01T15:51:04.674Z,73
2022-12-01T15:53:35.462Z,71
2022-12-01T15:56:07.578Z,72
2022-12-01T15:58:38.595Z,72
2022-12-01T16:01:11.111Z,71
2022-12-01T16:03:42.218Z,70
2022-12-01T16:06:13.499Z,70
2022-12-01T16:08:44.987Z,70
2022-12-01T16:11:16.628Z,71
2022-12-01T16:13:47.817Z,70
2022-12-01T16:16:20.247Z,71
2022-12-01T16:18:51.826Z,70
2022-12-01T16:21:23.271Z,70
2022-12-01T16:23:54.680Z,70
2022-12-01T16:26:25.525Z,70
2022-12-01T16:28:57.137Z,70
2022-12-01T16:31:28.572Z,70
2022-12-01T16:33:59.987Z,71
2022-12-01T16:36:30.678Z,70
2022-12-01T16:39:01.936Z,69
2022-12-01T16:41:37.783Z,70
2022-12-01T16:44:27.352Z,70
2022-12-01T16:46:35.753Z,69
2022-12-01T16:49:07.401Z,70
2022-12-01T16:51:56.300Z,69
2022-12-01T16:54:11.445Z,70
2022-12-01T16:56:42.844Z,70
2022-12-01T16:59:14.956Z,68
2022-12-01T17:01:47.017Z,69
2022-12-01T17:04:18.683Z,69
2022-12-01T17:06:50.842Z,68
2022-12-01T17:09:22.692Z,69
2022-12-01T17:11:53.945Z,69
2022-12-01T17:14:25.409Z,70
2022-12-01T17:16:57.880Z,70
2022-12-01T17:19:29.766Z,70
2022-12-01T17:22:01.102Z,71
2022-12-01T17:24:32.116Z,71
2022-12-01T17:27:05.031Z,72
2022-12-01T17:29:36.312Z,71
2022-12-01T17:32:08.020Z,72
2022-12-01T17:34:39.030Z,73
2022-12-01T17:37:20.826Z,72
2022-12-01T17:40:02.182Z,73
2022-12-01T17:42:33.303Z,73
2022-12-01T17:45:06.195Z,74
2022-12-01T17:47:36.630Z,74
2022-12-01T17:50:06.588Z,74
2022-12-01T17:52:38.736Z,74
2022-12-01T17:55:11.533Z,74
2022-12-01T17:57:43.843Z,74
2022-12-01T18:00:14.986Z,74
2022-12-01T18:02:47.053Z,74
2022-12-01T18:05:17.739Z,74
2022-12-01T18:07:49.632Z,75
2022-12-01T18:10:21.265Z,74
2022-12-01T18:12:52.594Z,74
2022-12-01T18:15:24.040Z,74
2022-12-01T18:17:55.699Z,74
2022-12-01T18:20:27.209Z,74
2022-12-01T18:23:00.309Z,74
2022-12-01T18:25:31.940Z,74
2022-12-01T18:28:04.206Z,74
2022-12-01T18:30:35.502Z,74
2022-12-01T18:33:07.443Z,75
2022-12-01T18:35:39.180Z,75
2022-12-01T18:38:11.226Z,74
2022-12-01T18:40:42.714Z,74
2022-12-01T18:43:14.398Z,74
2022-12-01T18:45:45.858Z,74
2022-12-01T18:48:17.785Z,74
2022-12-01T18:50:48.435Z,74
2022-12-01T18:53:17.629Z,74
2022-12-01T18:55:49.930Z,74
2022-12-01T18:58:22.440Z,73
2022-12-01T19:00:53.851Z,73
2022-12-01T19:03:25.123Z,74
2022-12-01T19:05:56.733Z,73
2022-12-01T19:08:27.840Z,74
2022-12-01T19:10:59.637Z,74
2022-12-01T19:13:29.466Z,74
2022-12-01T19:16:01.301Z,73
2022-12-01T19:18:32.740Z,74
2022-12-01T19:21:02.087Z,74
2022-12-01T19:23:33.951Z,74
2022-12-01T19:26:05.184Z,74
2022-12-01T19:28:36.951Z,74
2022-12-01T19:31:08.202Z,75
2022-12-01T19:33:39.612Z,74
2022-12-01T19:36:11.643Z,74
2022-12-01T19:38:43.687Z,74
2022-12-01T19:41:17.018Z,74
2022-12-01T19:43:48.264Z,75
2022-12-01T19:46:18.038Z,74
2022-12-01T19:48:49.598Z,74
2022-12-01T19:51:21.566Z,75
2022-12-01T19:53:53.321Z,75
2022-12-01T19:56:24.882Z,75
2022-12-01T19:58:56.396Z,75
2022-12-01T20:01:27.729Z,74
2022-12-01T20:03:59.678Z,74
2022-12-01T20:06:30.846Z,74
2022-12-01T20:09:02.363Z,74
2022-12-01T20:11:35.347Z,74
2022-12-01T20:14:06.982Z,74
2022-12-01T20:16:38.012Z,75
2022-12-01T20:19:10.508Z,75
2022-12-01T20:21:42.292Z,75
2022-12-01T20:24:14.238Z,75
2022-12-01T20:26:46.389Z,75
2022-12-01T20:29:17.662Z,75
2022-12-01T20:31:49.305Z,75
2022-12-01T20:34:20.825Z,74
2022-12-01T20:36:52.656Z,74
2022-12-01T20:39:24.248Z,74
2022-12-01T20:41:56.196Z,74
2022-12-01T20:44:27.749Z,74
2022-12-01T20:47:00.526Z,74
2022-12-01T20:49:35.102Z,74
2022-12-01T20:52:06.212Z,74
2022-12-01T20:54:38.110Z,74
2022-12-01T20:57:09.631Z,74
2022-12-01T20:59:42.683Z,73
2022-12-01T21:02:14.941Z,73
2022-12-01T21:04:46.518Z,73
2022-12-01T21:07:18.161Z,74
2022-12-01T21:09:54.377Z,74
2022-12-01T21:12:27.429Z,74
2022-12-01T21:14:59.362Z,73
2022-12-01T21:17:30.320Z,73
2022-12-01T21:20:01.618Z,73
2022-12-01T21:22:33.031Z,73
2022-12-01T21:25:05.458Z,74
2022-12-01T21:27:37.632Z,73
2022-12-01T21:30:09.544Z,73
2022-12-01T21:32:43.994Z,73
2022-12-01T21:35:13.101Z,73
2022-12-01T21:37:44.098Z,73
2022-12-01T21:40:15.491Z,72
2022-12-01T21:42:47.344Z,72
2022-12-01T21:45:18.686Z,73
2022-12-01T21:47:50.155Z,72
2022-12-01T21:50:23.545Z,72
2022-12-01T21:52:54.942Z,72
2022-12-01T21:55:26.401Z,72
2022-12-01T21:57:57.444Z,72
2022-12-01T22:00:29.409Z,72
2022-12-01T22:03:01.159Z,72
2022-12-01T22:05:32.501Z,72
2022-12-01T22:08:04.135Z,71
2022-12-01T22:10:35.975Z,71
2022-12-01T22:13:07.740Z,71
2022-12-01T22:15:39.359Z,71
2022-12-01T22:18:12.032Z,71
2022-12-01T22:20:44.064Z,71
2022-12-01T22:23:15.526Z,71
2022-12-01T22:25:47.081Z,71
2022-12-01T22:28:18.222Z,70
2022-12-01T22:30:49.783Z,71
2022-12-01T22:33:21.466Z,70
2022-12-01T22:35:52.840Z,70
2022-12-01T22:38:24.795Z,70
2022-12-01T22:40:56.465Z,70
2022-12-01T22:43:28.505Z,70
2022-12-01T22:46:00.100Z,70
2022-12-01T22:48:31.643Z,70
2022-12-01T22:51:02.981Z,70
2022-12-01T22:53:34.190Z,70
2022-12-01T22:56:05.878Z,69
2022-12-01T22:58:37.017Z,70
2022-12-01T23:01:08.447Z,69
2022-12-01T23:03:40.181Z,71
2022-12-01T23:06:11.237Z,70
2022-12-01T23:08:42.723Z,70
2022-12-01T23:11:14.322Z,70
2022-12-01T23:13:45.737Z,69
2022-12-01T23:16:16.499Z,70
2022-12-01T23:18:48.023Z,70
2022-12-01T23:21:19.182Z,70
2022-12-01T23:23:50.010Z,70
2022-12-01T23:26:21.217Z,70
2022-12-01T23:28:51.944Z,69
2022-12-01T23:31:22.584Z,69
2022-12-01T23:33:52.703Z,70
2022-12-01T23:36:23.484Z,70
2022-12-01T23:38:54.384Z,69
2022-12-01T23:41:25.755Z,69
2022-12-01T23:43:55.586Z,69
2022-12-01T23:46:25.788Z,69
2022-12-01T23:48:56.591Z,69
2022-12-01T23:51:27.682Z,69
2022-12-01T23:53:58.591Z,68
2022-12-01T23:56:29.396Z,68
2022-12-01T23:59:00.110Z,69
